• Join FlightAware (Why Join?)
  • Login
  • US Flag GB Flag 
08:58 EDT


 

Airport Tracker/Info


-or-


 

Live Flight TrackerFlight Track Log ✈ UAL4543 ✈ 19-Apr-2013 ✈ KEWR - KDSM

Flight Track Log - Related Links

Times and Time Zones

All times are in EDT time to prevent confusion due to time zone crossing. See the UAL4543 flight status page for this flight to view local times or setup timezone preferences in your user account.

Time Position Orientation Groundspeed Altitude Reporting Facility
EDT Latitude Longitude Course Direction KTS MPH feet Rate Location/Type
19:53 40.6667 -74.1833 270° West 162 186 1,100  Level New York TRACON
19:54 40.6167 -74.2167 207° Southwest 215 247 3,400 2,760 Climbing New York TRACON
19:54 40.6667 -74.2833 315° West 283 326 6,400 2,880 Climbing New York TRACON
19:55 40.7333 -74.3333 330° Northwest 293 337 8,900 1,800 Climbing New York TRACON
19:56 40.9890 -74.5207 319° Northwest  Level FlightAware Approximate
19:56 40.8000 -74.4000 323° Northwest 334 384 10,100  Level New York TRACON
19:57 41.0630 -74.6142 316° Northwest  Level FlightAware Approximate
19:57 40.8833 -74.4833 323° Northwest 391 450 10,700  Level New York TRACON
19:58 41.1333 -74.6977 270° West  Level FlightAware Approximate
19:58 40.9761 -74.5528 331° Northwest 417 480 13,600  Level New York Center
19:59 41.0672 -74.6322 327° Northwest 401 461 14,700 1,380 Climbing New York Center
20:00 41.1442 -74.7028 325° Northwest 391 450 16,500 2,040 Climbing New York Center
20:01 41.2433 -74.7886 327° Northwest 391 450 18,900 1,980 Climbing New York Center
20:03 41.3242 -74.8569 328° Northwest 385 443 20,500 1,380 Climbing New York Center
20:03 41.4297 -74.9353 331° Northwest 390 449 21,700 1,080 Climbing New York Center
20:04 41.5311 -75.0108 331° Northwest 401 461 22,700 1,020 Climbing New York Center
20:06 41.6172 -75.1050 321° Northwest 406 467 23,800 1,080 Climbing New York Center
20:06 41.6628 -75.2303 296° West 375 432 24,900 1,140 Climbing New York Center
20:07 41.6931 -75.3628 287° West 375 432 26,100 1,140 Climbing New York Center
20:08 41.7211 -75.4953 286° West 369 425 27,300 1,320 Climbing New York Center
20:09 41.7514 -75.6253 287° West 374 430 28,800 1,380 Climbing New York Center
20:11 41.7792 -75.7525 286° West 367 422 30,100 1,200 Climbing New York Center
20:11 41.8072 -75.8825 286° West 367 422 31,300 900 Climbing New York Center
20:12 41.8367 -76.0186 286° West 373 429 32,000 600 Climbing New York Center
20:14 41.8678 -76.1603 286° West 383 441 32,600 900 Climbing New York Center
20:14 41.8989 -76.2992 287° West 388 447 33,900 660 Climbing New York Center
20:15 41.9239 -76.4269 285° West 388 447 34,000  Climbing New York Center
20:16 41.9564 -76.5775 286° West 405 466 34,000  Level New York Center
20:17 41.9864 -76.7281 285° West 415 478 34,000  Level New York Center
20:18 42.0181 -76.8817 286° West 421 484 34,000  Level New York Center
20:19 42.0336 -76.9431 289° West 426 490 34,000  Level Cleveland Center
20:20 42.0656 -77.0950 286° West 426 490 34,000  Level Cleveland Center
20:21 42.0953 -77.2503 285° West 431 496 34,000  Level Cleveland Center
20:22 42.1286 -77.4025 286° West 431 496 34,000  Level Cleveland Center
20:23 42.1578 -77.5581 284° West 431 496 34,000  Level Cleveland Center
20:24 42.1908 -77.7106 286° West 431 496 34,000  Level Cleveland Center
20:25 42.2219 -77.8689 285° West 436 502 34,000  Level Cleveland Center
20:26 42.2547 -78.0275 286° West 436 502 34,000  Level Cleveland Center
20:27 42.2853 -78.1892 284° West 441 507 34,000  Level Cleveland Center
20:28 42.3200 -78.3647 285° West 446 513 34,000  Level Cleveland Center
20:29 42.3500 -78.5239 284° West 446 513 34,000  Level Cleveland Center
20:30 42.3800 -78.6803 285° West 441 507 34,000  Level Cleveland Center
20:31 42.4094 -78.8369 284° West 436 502 34,000  Level Cleveland Center
20:32 42.4389 -78.9881 285° West 430 495 34,000  Level Cleveland Center
20:33 42.4700 -79.1419 285° West 430 495 34,000  Level Cleveland Center
20:34 42.4947 -79.2906 283° West 424 488 34,000  Level Cleveland Center
20:35 42.5003 -79.4286 273° West 400 460 34,000  Level Cleveland Center
20:36 42.5058 -79.5664 273° West 380 437 34,000  Level Cleveland Center
20:37 42.5047 -79.7072 269° West 375 432 34,000  Level Cleveland Center
20:38 42.5017 -79.8453 268° West 375 432 34,000 -300 Level Cleveland Center
20:39 42.5025 -79.9833 271° West 375 432 33,400 -1,080 Descending Cleveland Center
20:40 42.4967 -80.1100 266° West 375 432 31,900 -1,440 Descending Cleveland Center
20:41 42.4931 -80.2397 268° West 359 413 30,600 -960 Descending Cleveland Center
20:42 42.4933 -80.3747 270° West 359 413 30,000 -300 Descending Cleveland Center
20:43 42.4914 -80.5211 269° West 352 405 30,000  Level Cleveland Center
20:44 42.4894 -80.6536 269° West 352 405 30,000  Level Cleveland Center
20:45 42.4872 -80.7858 269° West 352 405 30,000  Level Cleveland Center
20:46 42.4847 -80.9239 269° West 357 411 30,000  Level Cleveland Center
20:47 42.4822 -81.0561 269° West 357 411 30,000  Level Cleveland Center
20:48 42.4794 -81.1883 268° West 363 418 30,000  Level Cleveland Center
20:49 42.4744 -81.3264 267° West 363 418 30,000  Level Cleveland Center
20:50 42.4736 -81.4614 270° West 362 417 30,000  Level Cleveland Center
20:51 42.4703 -81.5992 268° West 362 417 30,000  Level Cleveland Center
20:52 42.4647 -81.7372 267° West 362 417 30,000  Level Cleveland Center
20:53 42.4614 -81.8581 268° West 362 417 30,000  Level Cleveland Center
20:54 42.4578 -81.9931 268° West 362 417 30,000  Level Cleveland Center
20:55 42.4539 -82.1308 268° West 362 417 30,000  Level Cleveland Center
20:56 42.4500 -82.2686 268° West 362 417 30,000  Level Cleveland Center
20:57 42.4456 -82.4092 268° West 362 417 30,000  Level Cleveland Center
20:58 42.4414 -82.5497 268° West 362 417 30,000  Level Cleveland Center
20:59 42.4367 -82.6903 267° West 367 422 30,000  Level Cleveland Center
21:00 42.4319 -82.8367 268° West 372 428 30,000  Level Cleveland Center
21:01 42.4269 -82.9797 267° West 384 442 30,000  Level Cleveland Center
21:02 42.4214 -83.1344 267° West 384 442 30,000  Level Cleveland Center
21:03 42.4161 -83.2747 267° West 384 442 30,000  Level Cleveland Center
21:04 42.4086 -83.4208 266° West 383 441 30,000  Level Cleveland Center
21:05 42.4028 -83.5611 267° West 383 441 30,000  Level Cleveland Center
21:06 42.3989 -83.7072 268° West 383 441 30,000  Level Cleveland Center
21:07 42.3908 -83.8558 266° West 388 447 30,000  Level Cleveland Center
21:08 42.3844 -83.9989 267° West 388 447 30,000  Level Cleveland Center
21:09 42.3781 -84.1447 267° West 388 447 30,000  Level Cleveland Center
21:10 42.3711 -84.2906 266° West 388 447 30,000  Level Cleveland Center
21:12 42.3608 -84.5336 267° West 391 450 30,000  Level Chicago Center
21:13 42.3539 -84.6803 266° West 392 451 30,000  Level Chicago Center
21:14 42.3458 -84.8281 266° West 394 453 30,000  Level Chicago Center
21:15 42.3386 -84.9767 266° West 397 457 30,000  Level Chicago Center
21:16 42.3300 -85.1253 266° West 395 455 30,000  Level Chicago Center
21:17 42.3225 -85.2742 266° West 397 457 30,000  Level Chicago Center
21:18 42.3128 -85.4231 265° West 397 457 30,000  Level Chicago Center
21:19 42.3025 -85.6008 266° West 397 457 30,000  Level Chicago Center
21:20 42.2939 -85.7478 266° West 393 452 30,000  Level Chicago Center
21:21 42.2842 -85.8983 265° West 399 459 30,000  Level Chicago Center
21:22 42.2739 -86.0603 265° West 400 460 30,000  Level Chicago Center
21:23 42.2644 -86.2097 265° West 402 463 30,000  Level Chicago Center
21:24 42.2544 -86.3586 265° West 401 461 30,000  Level Chicago Center
21:25 42.2444 -86.5081 265° West 402 463 30,000  Level Chicago Center
21:26 42.2342 -86.6606 265° West 407 468 30,000  Level Chicago Center
21:27 42.2228 -86.8272 265° West 408 470 30,000  Level Chicago Center
21:28 42.2128 -86.9789 265° West 410 472 30,000  Level Chicago Center
21:29 42.2000 -87.1292 264° West 406 467 30,000  Level Chicago Center
21:30 42.1903 -87.2825 265° West 412 474 30,000  Level Chicago Center
21:31 42.1783 -87.4358 264° West 415 478 30,000  Level Chicago Center
21:32 42.1642 -87.6206 264° West 415 478 30,000  Level Chicago Center
21:33 42.1525 -87.7761 264° West 420 483 30,000  Level Chicago Center
21:34 42.1397 -87.9294 264° West 418 481 30,000  Level Chicago Center
21:35 42.1275 -88.0839 264° West 419 482 30,000  Level Chicago Center
21:36 42.1139 -88.2378 263° West 420 483 30,000  Level Chicago Center
21:37 42.0989 -88.4222 264° West 418 481 30,000  Level Chicago Center
21:38 42.0861 -88.5758 264° West 417 480 30,000  Level Chicago Center
21:39 42.0728 -88.7325 264° West 424 488 30,000  Level Chicago Center
21:40 42.0586 -88.8875 263° West 423 487 30,000  Level Chicago Center
21:41 42.0444 -89.0411 263° West 419 482 30,000  Level Chicago Center
21:42 42.0314 -89.1958 264° West 420 483 30,000  Level Chicago Center
21:43 42.0139 -89.3828 263° West 424 488 30,000  Level Chicago Center
21:44 42.0003 -89.5350 263° West 415 478 30,000  Level Chicago Center
21:45 41.9850 -89.6856 262° West 410 472 30,000  Level Chicago Center
21:46 41.9706 -89.8400 263° West 417 480 30,000  Level Chicago Center
21:47 41.9561 -90.0078 263° West 421 484 30,000  Level Chicago Center
21:49 41.9400 -90.1622 262° West 420 483 30,000  Level Chicago Center
21:50 41.9267 -90.3128 263° West 412 474 30,000  Level Chicago Center
21:51 41.9125 -90.4656 263° West 414 476 30,000  Level Chicago Center
21:52 41.8967 -90.6178 262° West 414 476 30,000  Level Chicago Center
21:53 41.8767 -90.7786 261° West 428 493 30,000  Level Chicago Center
21:54 41.8569 -90.9597 262° West 413 475 30,000  Level Chicago Center
21:55 41.8403 -91.1114 262° West 413 475 30,000  Level Chicago Center
21:56 41.8242 -91.2625 262° West 411 473 30,000  Level Chicago Center
21:57 41.8078 -91.4153 262° West 413 475 30,000  Level Chicago Center
21:58 41.7906 -91.5661 261° West 414 476 30,000 -420 Level Chicago Center
21:59 41.7736 -91.7158 261° West 409 471 29,200 -1,440 Descending Chicago Center
22:00 41.7558 -91.8661 261° West 410 472 27,100 -2,160 Descending Chicago Center
22:01 41.7353 -92.0431 261° West 404 465 24,700 -2,220 Descending Chicago Center
22:02 41.7175 -92.1897 261° West 401 461 22,700 -2,040 Descending Chicago Center
22:03 41.7014 -92.3300 261° West 387 445 20,600 -2,040 Descending Chicago Center
22:04 41.6850 -92.4658 261° West 375 432 18,600 -1,980 Descending Chicago Center
22:05 41.6672 -92.6017 260° West 372 428 16,600 -2,040 Descending Chicago Center
22:06 41.6425 -92.7297 256° West 365 420 14,800 -1,920 Descending Minneapolis Center
22:07 41.6186 -92.8561 256° West 353 406 13,100 -1,680 Descending Minneapolis Center
22:08 41.5958 -92.9806 256° West 346 398 11,400 -1,500 Descending Minneapolis Center
22:09 41.5750 -93.0911 256° West 309 356 10,100 -1,380 Descending Minneapolis Center
22:10 41.5678 -93.1550 261° West 274 315 9,000 -1,620 Descending Minneapolis Center
22:10 41.5564 -93.1911 247° West 258 297 8,500 -1,920 Descending Minneapolis Center
22:11 41.5497 -93.2431 260° West 252 290 7,100 -1,860 Descending Minneapolis Center
22:11 41.5394 -93.2800 250° West 248 285 6,600 -1,800 Descending Minneapolis Center
22:12 41.5336 -93.3308 261° West 246 283 5,300 -1,800 Descending Minneapolis Center
22:12 41.5231 -93.3667 249° West 242 278 4,800 -1,380 Descending Minneapolis Center
22:13 41.5178 -93.4242 263° West 238 274 3,900 -1,320 Descending Minneapolis Center
22:13 41.5064 -93.4564 245° Southwest 233 268 3,500 -900 Descending Minneapolis Center
22:14 41.5014 -93.5036 262° West 227 261 3,000 -900 Descending Minneapolis Center
22:14 41.4919 -93.5347 248° West 220 253 2,600 -540 Descending Minneapolis Center
22:15 41.4903 -93.5714 267° West 189 217 2,500 -300 Descending Minneapolis Center
22:15 41.4906 -93.5936 271° West 164 189 2,300 -600 Descending Minneapolis Center